sensor_id;sensor_type;location;lat;lon;timestamp;P1;durP1;ratioP1;P2;durP2;ratioP2
70444;SDS011;57902;49.638;11.070;2023-11-21T00:01:05;2.33;;;0.70;;
70444;SDS011;57902;49.638;11.070;2023-11-21T00:03:35;2.83;;;0.75;;
70444;SDS011;57902;49.638;11.070;2023-11-21T00:06:02;2.38;;;0.70;;
70444;SDS011;57902;49.638;11.070;2023-11-21T00:08:29;3.08;;;0.70;;
70444;SDS011;57902;49.638;11.070;2023-11-21T00:10:56;1.95;;;0.52;;
70444;SDS011;57902;49.638;11.070;2023-11-21T00:13:23;0.68;;;0.45;;
70444;SDS011;57902;49.638;11.070;2023-11-21T00:15:49;5.10;;;0.70;;
70444;SDS011;57902;49.638;11.070;2023-11-21T00:18:16;2.85;;;0.70;;
70444;SDS011;57902;49.638;11.070;2023-11-21T00:20:43;4.60;;;0.70;;
70444;SDS011;57902;49.638;11.070;2023-11-21T00:23:09;5.32;;;0.80;;
70444;SDS011;57902;49.638;11.070;2023-11-21T00:25:36;2.35;;;0.70;;
70444;SDS011;57902;49.638;11.070;2023-11-21T00:28:03;4.40;;;1.15;;
70444;SDS011;57902;49.638;11.070;2023-11-21T00:30:30;4.70;;;0.80;;
70444;SDS011;57902;49.638;11.070;2023-11-21T00:32:57;1.50;;;0.65;;
70444;SDS011;57902;49.638;11.070;2023-11-21T00:35:24;2.05;;;0.63;;
70444;SDS011;57902;49.638;11.070;2023-11-21T00:37:50;1.92;;;0.60;;
70444;SDS011;57902;49.638;11.070;2023-11-21T00:40:17;1.15;;;0.52;;
70444;SDS011;57902;49.638;11.070;2023-11-21T00:42:47;1.27;;;0.50;;
70444;SDS011;57902;49.638;11.070;2023-11-21T00:45:14;2.17;;;0.47;;
70444;SDS011;57902;49.638;11.070;2023-11-21T00:47:40;1.60;;;0.55;;
70444;SDS011;57902;49.638;11.070;2023-11-21T00:50:08;1.25;;;0.40;;
70444;SDS011;57902;49.638;11.070;2023-11-21T00:52:36;1.95;;;0.50;;
70444;SDS011;57902;49.638;11.070;2023-11-21T00:55:03;1.33;;;0.40;;
70444;SDS011;57902;49.638;11.070;2023-11-21T00:57:31;1.27;;;0.47;;
70444;SDS011;57902;49.638;11.070;2023-11-21T00:59:57;1.58;;;0.40;;
70444;SDS011;57902;49.638;11.070;2023-11-21T01:02:24;3.35;;;0.60;;
70444;SDS011;57902;49.638;11.070;2023-11-21T01:04:51;2.00;;;0.63;;
70444;SDS011;57902;49.638;11.070;2023-11-21T01:07:18;3.00;;;0.60;;
70444;SDS011;57902;49.638;11.070;2023-11-21T01:09:47;2.53;;;0.47;;
70444;SDS011;57902;49.638;11.070;2023-11-21T01:12:14;1.65;;;0.50;;
70444;SDS011;57902;49.638;11.070;2023-11-21T01:14:41;1.75;;;0.45;;
70444;SDS011;57902;49.638;11.070;2023-11-21T01:17:07;2.35;;;0.52;;
70444;SDS011;57902;49.638;11.070;2023-11-21T01:19:34;0.88;;;0.68;;
70444;SDS011;57902;49.638;11.070;2023-11-21T01:22:00;2.58;;;0.52;;
70444;SDS011;57902;49.638;11.070;2023-11-21T01:24:27;2.67;;;0.60;;
70444;SDS011;57902;49.638;11.070;2023-11-21T01:26:53;2.97;;;0.60;;
70444;SDS011;57902;49.638;11.070;2023-11-21T01:29:20;2.22;;;0.70;;
70444;SDS011;57902;49.638;11.070;2023-11-21T01:31:47;1.20;;;0.50;;
70444;SDS011;57902;49.638;11.070;2023-11-21T01:34:13;0.65;;;0.40;;
70444;SDS011;57902;49.638;11.070;2023-11-21T01:36:40;2.22;;;0.40;;
70444;SDS011;57902;49.638;11.070;2023-11-21T01:39:07;2.17;;;0.60;;
70444;SDS011;57902;49.638;11.070;2023-11-21T01:41:35;1.75;;;0.65;;
70444;SDS011;57902;49.638;11.070;2023-11-21T01:44:01;1.73;;;0.80;;
70444;SDS011;57902;49.638;11.070;2023-11-21T01:46:28;2.30;;;0.50;;
70444;SDS011;57902;49.638;11.070;2023-11-21T01:48:55;1.52;;;0.70;;
70444;SDS011;57902;49.638;11.070;2023-11-21T01:51:22;3.05;;;0.70;;
70444;SDS011;57902;49.638;11.070;2023-11-21T01:53:49;3.28;;;0.80;;
70444;SDS011;57902;49.638;11.070;2023-11-21T01:56:17;2.72;;;0.70;;
70444;SDS011;57902;49.638;11.070;2023-11-21T01:58:44;2.30;;;0.85;;
70444;SDS011;57902;49.638;11.070;2023-11-21T02:01:13;2.63;;;0.80;;
70444;SDS011;57902;49.638;11.070;2023-11-21T02:03:40;2.58;;;0.90;;
70444;SDS011;57902;49.638;11.070;2023-11-21T02:06:07;1.13;;;0.63;;
70444;SDS011;57902;49.638;11.070;2023-11-21T02:08:35;3.75;;;1.08;;
70444;SDS011;57902;49.638;11.070;2023-11-21T02:11:04;2.25;;;0.90;;
70444;SDS011;57902;49.638;11.070;2023-11-21T02:13:30;3.03;;;0.82;;
70444;SDS011;57902;49.638;11.070;2023-11-21T02:15:58;2.25;;;1.00;;
70444;SDS011;57902;49.638;11.070;2023-11-21T02:18:25;3.03;;;1.00;;
70444;SDS011;57902;49.638;11.070;2023-11-21T02:20:52;1.30;;;0.93;;
70444;SDS011;57902;49.638;11.070;2023-11-21T02:23:18;2.47;;;1.00;;
70444;SDS011;57902;49.638;11.070;2023-11-21T02:25:45;2.85;;;1.15;;
70444;SDS011;57902;49.638;11.070;2023-11-21T02:28:13;4.20;;;1.20;;
70444;SDS011;57902;49.638;11.070;2023-11-21T02:30:41;3.33;;;0.93;;
70444;SDS011;57902;49.638;11.070;2023-11-21T02:33:08;1.88;;;1.02;;
70444;SDS011;57902;49.638;11.070;2023-11-21T02:35:35;3.80;;;1.00;;
70444;SDS011;57902;49.638;11.070;2023-11-21T02:38:02;2.47;;;1.00;;
70444;SDS011;57902;49.638;11.070;2023-11-21T02:40:28;2.70;;;0.98;;
70444;SDS011;57902;49.638;11.070;2023-11-21T02:42:56;3.63;;;1.20;;
70444;SDS011;57902;49.638;11.070;2023-11-21T02:45:25;4.57;;;1.20;;
70444;SDS011;57902;49.638;11.070;2023-11-21T02:47:52;2.78;;;1.00;;
70444;SDS011;57902;49.638;11.070;2023-11-21T02:50:24;2.33;;;1.00;;
70444;SDS011;57902;49.638;11.070;2023-11-21T02:52:51;3.13;;;1.05;;
70444;SDS011;57902;49.638;11.070;2023-11-21T02:55:18;2.92;;;0.95;;
70444;SDS011;57902;49.638;11.070;2023-11-21T02:57:44;5.32;;;1.20;;
70444;SDS011;57902;49.638;11.070;2023-11-21T03:00:11;4.22;;;1.02;;
70444;SDS011;57902;49.638;11.070;2023-11-21T03:02:39;3.40;;;1.20;;
70444;SDS011;57902;49.638;11.070;2023-11-21T03:05:06;4.97;;;1.10;;
70444;SDS011;57902;49.638;11.070;2023-11-21T03:10:07;3.75;;;1.00;;
70444;SDS011;57902;49.638;11.070;2023-11-21T03:12:36;3.22;;;1.00;;
70444;SDS011;57902;49.638;11.070;2023-11-21T03:15:04;3.78;;;1.10;;
70444;SDS011;57902;49.638;11.070;2023-11-21T03:17:32;4.55;;;1.10;;
70444;SDS011;57902;49.638;11.070;2023-11-21T03:20:00;3.05;;;1.00;;
70444;SDS011;57902;49.638;11.070;2023-11-21T03:22:27;4.32;;;1.00;;
70444;SDS011;57902;49.638;11.070;2023-11-21T03:24:54;3.17;;;1.08;;
70444;SDS011;57902;49.638;11.070;2023-11-21T03:27:20;4.22;;;1.10;;
70444;SDS011;57902;49.638;11.070;2023-11-21T03:29:48;2.28;;;0.90;;
70444;SDS011;57902;49.638;11.070;2023-11-21T03:32:14;4.38;;;1.30;;
70444;SDS011;57902;49.638;11.070;2023-11-21T03:34:54;6.18;;;1.50;;
70444;SDS011;57902;49.638;11.070;2023-11-21T03:37:25;4.70;;;1.23;;
70444;SDS011;57902;49.638;11.070;2023-11-21T03:39:54;4.22;;;1.38;;
70444;SDS011;57902;49.638;11.070;2023-11-21T03:42:21;5.57;;;1.30;;
70444;SDS011;57902;49.638;11.070;2023-11-21T03:44:48;4.53;;;1.33;;
70444;SDS011;57902;49.638;11.070;2023-11-21T03:47:14;5.10;;;1.50;;
70444;SDS011;57902;49.638;11.070;2023-11-21T03:49:42;3.40;;;1.30;;
70444;SDS011;57902;49.638;11.070;2023-11-21T03:52:08;4.10;;;1.40;;
70444;SDS011;57902;49.638;11.070;2023-11-21T03:54:35;3.42;;;1.40;;
70444;SDS011;57902;49.638;11.070;2023-11-21T03:57:02;3.55;;;1.30;;
70444;SDS011;57902;49.638;11.070;2023-11-21T03:59:29;4.63;;;1.33;;
70444;SDS011;57902;49.638;11.070;2023-11-21T04:01:56;3.47;;;1.30;;
70444;SDS011;57902;49.638;11.070;2023-11-21T04:04:23;5.07;;;1.25;;
70444;SDS011;57902;49.638;11.070;2023-11-21T04:06:50;3.67;;;1.40;;
70444;SDS011;57902;49.638;11.070;2023-11-21T04:09:18;4.65;;;1.40;;
70444;SDS011;57902;49.638;11.070;2023-11-21T04:11:44;3.38;;;1.38;;
70444;SDS011;57902;49.638;11.070;2023-11-21T04:14:12;3.40;;;1.35;;
70444;SDS011;57902;49.638;11.070;2023-11-21T04:16:40;4.07;;;1.58;;
70444;SDS011;57902;49.638;11.070;2023-11-21T04:19:07;3.63;;;1.40;;
70444;SDS011;57902;49.638;11.070;2023-11-21T04:21:36;4.72;;;1.30;;
70444;SDS011;57902;49.638;11.070;2023-11-21T04:24:03;4.10;;;1.30;;
70444;SDS011;57902;49.638;11.070;2023-11-21T04:26:29;4.13;;;1.33;;
70444;SDS011;57902;49.638;11.070;2023-11-21T04:28:56;3.33;;;1.30;;
70444;SDS011;57902;49.638;11.070;2023-11-21T04:31:22;3.75;;;1.40;;
70444;SDS011;57902;49.638;11.070;2023-11-21T04:33:50;4.03;;;1.40;;
70444;SDS011;57902;49.638;11.070;2023-11-21T04:36:16;5.13;;;1.42;;
70444;SDS011;57902;49.638;11.070;2023-11-21T04:38:43;3.45;;;1.33;;
70444;SDS011;57902;49.638;11.070;2023-11-21T04:41:10;4.25;;;1.50;;
70444;SDS011;57902;49.638;11.070;2023-11-21T04:43:36;3.28;;;1.40;;
70444;SDS011;57902;49.638;11.070;2023-11-21T04:46:03;3.28;;;1.38;;
70444;SDS011;57902;49.638;11.070;2023-11-21T04:48:29;4.68;;;1.60;;
70444;SDS011;57902;49.638;11.070;2023-11-21T04:50:57;4.53;;;1.40;;
70444;SDS011;57902;49.638;11.070;2023-11-21T04:53:23;3.60;;;1.58;;
70444;SDS011;57902;49.638;11.070;2023-11-21T04:55:49;4.57;;;1.48;;
70444;SDS011;57902;49.638;11.070;2023-11-21T04:58:16;4.70;;;1.60;;
70444;SDS011;57902;49.638;11.070;2023-11-21T05:00:43;5.15;;;1.67;;
70444;SDS011;57902;49.638;11.070;2023-11-21T05:03:10;3.58;;;1.50;;
70444;SDS011;57902;49.638;11.070;2023-11-21T05:05:37;6.97;;;2.25;;
70444;SDS011;57902;49.638;11.070;2023-11-21T05:08:03;5.13;;;2.00;;
70444;SDS011;57902;49.638;11.070;2023-11-21T05:10:31;6.35;;;2.03;;
70444;SDS011;57902;49.638;11.070;2023-11-21T05:12:57;6.03;;;2.65;;
70444;SDS011;57902;49.638;11.070;2023-11-21T05:15:24;5.65;;;2.10;;
70444;SDS011;57902;49.638;11.070;2023-11-21T05:17:51;5.20;;;2.05;;
70444;SDS011;57902;49.638;11.070;2023-11-21T05:20:18;4.90;;;2.00;;
70444;SDS011;57902;49.638;11.070;2023-11-21T05:22:50;4.47;;;1.70;;
70444;SDS011;57902;49.638;11.070;2023-11-21T05:25:17;5.45;;;1.65;;
70444;SDS011;57902;49.638;11.070;2023-11-21T05:27:47;5.03;;;1.60;;
70444;SDS011;57902;49.638;11.070;2023-11-21T05:30:14;4.15;;;1.60;;
70444;SDS011;57902;49.638;11.070;2023-11-21T05:32:41;3.58;;;1.63;;
70444;SDS011;57902;49.638;11.070;2023-11-21T05:35:12;4.63;;;1.88;;
70444;SDS011;57902;49.638;11.070;2023-11-21T05:37:43;5.53;;;2.30;;
70444;SDS011;57902;49.638;11.070;2023-11-21T05:42:39;7.53;;;2.30;;
70444;SDS011;57902;49.638;11.070;2023-11-21T05:45:07;4.60;;;1.80;;
70444;SDS011;57902;49.638;11.070;2023-11-21T05:47:39;5.40;;;1.83;;
70444;SDS011;57902;49.638;11.070;2023-11-21T05:50:11;6.60;;;2.20;;
70444;SDS011;57902;49.638;11.070;2023-11-21T05:52:41;5.90;;;2.20;;
70444;SDS011;57902;49.638;11.070;2023-11-21T05:55:10;7.57;;;3.55;;
70444;SDS011;57902;49.638;11.070;2023-11-21T05:57:37;4.88;;;2.00;;
70444;SDS011;57902;49.638;11.070;2023-11-21T06:00:05;7.07;;;2.25;;
70444;SDS011;57902;49.638;11.070;2023-11-21T06:02:38;5.57;;;2.03;;
70444;SDS011;57902;49.638;11.070;2023-11-21T06:05:05;5.07;;;2.20;;
70444;SDS011;57902;49.638;11.070;2023-11-21T06:07:33;6.72;;;2.33;;
70444;SDS011;57902;49.638;11.070;2023-11-21T06:10:00;6.95;;;2.67;;
70444;SDS011;57902;49.638;11.070;2023-11-21T06:12:33;7.03;;;2.13;;
70444;SDS011;57902;49.638;11.070;2023-11-21T06:15:04;6.18;;;2.42;;
70444;SDS011;57902;49.638;11.070;2023-11-21T06:17:34;6.05;;;2.40;;
70444;SDS011;57902;49.638;11.070;2023-11-21T06:20:06;5.32;;;2.25;;
70444;SDS011;57902;49.638;11.070;2023-11-21T06:22:41;5.85;;;2.20;;
70444;SDS011;57902;49.638;11.070;2023-11-21T06:25:09;7.60;;;2.65;;
70444;SDS011;57902;49.638;11.070;2023-11-21T06:27:38;7.95;;;2.90;;
70444;SDS011;57902;49.638;11.070;2023-11-21T06:30:06;6.40;;;2.65;;
70444;SDS011;57902;49.638;11.070;2023-11-21T06:32:35;6.70;;;2.78;;
70444;SDS011;57902;49.638;11.070;2023-11-21T06:35:02;6.82;;;2.80;;
70444;SDS011;57902;49.638;11.070;2023-11-21T06:37:30;6.75;;;2.13;;
70444;SDS011;57902;49.638;11.070;2023-11-21T06:39:58;6.80;;;2.53;;
70444;SDS011;57902;49.638;11.070;2023-11-21T06:42:26;6.68;;;2.63;;
70444;SDS011;57902;49.638;11.070;2023-11-21T06:44:53;8.25;;;2.80;;
70444;SDS011;57902;49.638;11.070;2023-11-21T06:47:20;7.80;;;2.75;;
70444;SDS011;57902;49.638;11.070;2023-11-21T06:49:47;6.43;;;2.72;;
70444;SDS011;57902;49.638;11.070;2023-11-21T06:52:16;5.85;;;2.47;;
70444;SDS011;57902;49.638;11.070;2023-11-21T06:54:44;7.97;;;2.90;;
70444;SDS011;57902;49.638;11.070;2023-11-21T06:57:11;8.20;;;2.90;;
70444;SDS011;57902;49.638;11.070;2023-11-21T06:59:38;7.95;;;3.05;;
70444;SDS011;57902;49.638;11.070;2023-11-21T07:02:04;8.10;;;2.90;;
70444;SDS011;57902;49.638;11.070;2023-11-21T07:04:36;7.25;;;2.90;;
70444;SDS011;57902;49.638;11.070;2023-11-21T07:07:03;7.00;;;2.83;;
70444;SDS011;57902;49.638;11.070;2023-11-21T07:09:30;5.95;;;2.50;;
70444;SDS011;57902;49.638;11.070;2023-11-21T07:11:57;7.50;;;2.80;;
70444;SDS011;57902;49.638;11.070;2023-11-21T07:14:24;7.63;;;2.80;;
70444;SDS011;57902;49.638;11.070;2023-11-21T07:16:50;6.97;;;2.92;;
70444;SDS011;57902;49.638;11.070;2023-11-21T07:19:19;6.70;;;2.80;;
70444;SDS011;57902;49.638;11.070;2023-11-21T07:21:46;6.88;;;3.33;;
70444;SDS011;57902;49.638;11.070;2023-11-21T07:24:12;7.85;;;3.10;;
70444;SDS011;57902;49.638;11.070;2023-11-21T07:26:40;7.68;;;2.72;;
70444;SDS011;57902;49.638;11.070;2023-11-21T07:29:07;9.43;;;3.63;;
70444;SDS011;57902;49.638;11.070;2023-11-21T07:31:33;7.90;;;3.35;;
70444;SDS011;57902;49.638;11.070;2023-11-21T07:34:03;6.95;;;2.90;;
70444;SDS011;57902;49.638;11.070;2023-11-21T07:36:29;8.82;;;3.50;;
70444;SDS011;57902;49.638;11.070;2023-11-21T07:38:56;12.00;;;3.90;;
70444;SDS011;57902;49.638;11.070;2023-11-21T07:41:22;6.78;;;3.10;;
70444;SDS011;57902;49.638;11.070;2023-11-21T07:43:56;8.88;;;4.55;;
70444;SDS011;57902;49.638;11.070;2023-11-21T07:46:23;9.68;;;4.50;;
70444;SDS011;57902;49.638;11.070;2023-11-21T07:48:52;8.23;;;3.30;;
70444;SDS011;57902;49.638;11.070;2023-11-21T07:51:19;7.60;;;3.03;;
70444;SDS011;57902;49.638;11.070;2023-11-21T07:53:46;8.35;;;3.40;;
70444;SDS011;57902;49.638;11.070;2023-11-21T07:56:13;6.65;;;3.15;;
70444;SDS011;57902;49.638;11.070;2023-11-21T07:58:39;7.05;;;3.13;;
70444;SDS011;57902;49.638;11.070;2023-11-21T08:01:06;7.45;;;3.30;;
70444;SDS011;57902;49.638;11.070;2023-11-21T08:03:34;7.30;;;3.15;;
70444;SDS011;57902;49.638;11.070;2023-11-21T08:06:01;8.48;;;2.97;;
70444;SDS011;57902;49.638;11.070;2023-11-21T08:10:56;9.27;;;3.10;;
70444;SDS011;57902;49.638;11.070;2023-11-21T08:13:26;8.15;;;3.58;;
70444;SDS011;57902;49.638;11.070;2023-11-21T08:15:55;8.50;;;3.33;;
70444;SDS011;57902;49.638;11.070;2023-11-21T08:18:22;8.70;;;3.35;;
70444;SDS011;57902;49.638;11.070;2023-11-21T08:20:49;7.22;;;3.38;;
70444;SDS011;57902;49.638;11.070;2023-11-21T08:23:15;7.18;;;3.35;;
70444;SDS011;57902;49.638;11.070;2023-11-21T08:25:45;8.35;;;3.13;;
70444;SDS011;57902;49.638;11.070;2023-11-21T08:28:12;7.38;;;3.40;;
70444;SDS011;57902;49.638;11.070;2023-11-21T08:30:40;9.45;;;3.75;;
70444;SDS011;57902;49.638;11.070;2023-11-21T08:33:07;11.20;;;3.92;;
70444;SDS011;57902;49.638;11.070;2023-11-21T08:35:40;7.28;;;3.50;;
70444;SDS011;57902;49.638;11.070;2023-11-21T08:38:06;7.90;;;3.85;;
70444;SDS011;57902;49.638;11.070;2023-11-21T08:40:34;9.18;;;3.60;;
70444;SDS011;57902;49.638;11.070;2023-11-21T08:43:01;7.80;;;3.85;;
70444;SDS011;57902;49.638;11.070;2023-11-21T08:45:31;10.02;;;3.78;;
70444;SDS011;57902;49.638;11.070;2023-11-21T08:48:01;7.25;;;3.70;;
70444;SDS011;57902;49.638;11.070;2023-11-21T08:50:28;7.90;;;3.53;;
70444;SDS011;57902;49.638;11.070;2023-11-21T08:52:54;8.50;;;3.53;;
70444;SDS011;57902;49.638;11.070;2023-11-21T08:55:22;7.60;;;3.47;;
70444;SDS011;57902;49.638;11.070;2023-11-21T08:57:48;25.70;;;9.00;;
70444;SDS011;57902;49.638;11.070;2023-11-21T09:00:15;21.80;;;9.10;;
70444;SDS011;57902;49.638;11.070;2023-11-21T09:02:43;9.18;;;3.85;;
70444;SDS011;57902;49.638;11.070;2023-11-21T09:05:11;8.23;;;3.38;;
70444;SDS011;57902;49.638;11.070;2023-11-21T09:07:38;7.50;;;3.47;;
70444;SDS011;57902;49.638;11.070;2023-11-21T09:10:07;11.65;;;3.72;;
70444;SDS011;57902;49.638;11.070;2023-11-21T09:12:36;8.13;;;3.30;;
70444;SDS011;57902;49.638;11.070;2023-11-21T09:15:06;8.20;;;3.30;;
70444;SDS011;57902;49.638;11.070;2023-11-21T09:17:34;7.47;;;3.20;;
70444;SDS011;57902;49.638;11.070;2023-11-21T09:20:01;8.63;;;3.63;;
70444;SDS011;57902;49.638;11.070;2023-11-21T09:22:30;8.20;;;3.58;;
70444;SDS011;57902;49.638;11.070;2023-11-21T09:24:58;8.00;;;3.13;;
70444;SDS011;57902;49.638;11.070;2023-11-21T09:27:24;10.57;;;3.30;;
70444;SDS011;57902;49.638;11.070;2023-11-21T09:29:52;9.40;;;3.30;;
70444;SDS011;57902;49.638;11.070;2023-11-21T09:32:19;9.00;;;3.70;;
70444;SDS011;57902;49.638;11.070;2023-11-21T09:34:48;10.43;;;3.65;;
70444;SDS011;57902;49.638;11.070;2023-11-21T09:37:16;9.35;;;3.08;;
70444;SDS011;57902;49.638;11.070;2023-11-21T09:39:42;8.25;;;3.65;;
70444;SDS011;57902;49.638;11.070;2023-11-21T09:42:13;10.05;;;3.75;;
70444;SDS011;57902;49.638;11.070;2023-11-21T09:47:32;8.75;;;3.55;;
70444;SDS011;57902;49.638;11.070;2023-11-21T09:50:02;8.95;;;3.75;;
70444;SDS011;57902;49.638;11.070;2023-11-21T09:52:29;8.60;;;3.70;;
70444;SDS011;57902;49.638;11.070;2023-11-21T09:54:59;9.38;;;3.92;;
70444;SDS011;57902;49.638;11.070;2023-11-21T09:57:26;7.68;;;3.58;;
70444;SDS011;57902;49.638;11.070;2023-11-21T09:59:54;10.15;;;3.50;;
70444;SDS011;57902;49.638;11.070;2023-11-21T10:02:26;8.98;;;3.80;;
70444;SDS011;57902;49.638;11.070;2023-11-21T10:04:56;7.65;;;3.47;;
70444;SDS011;57902;49.638;11.070;2023-11-21T10:07:23;6.47;;;2.90;;
70444;SDS011;57902;49.638;11.070;2023-11-21T10:09:50;10.10;;;3.75;;
70444;SDS011;57902;49.638;11.070;2023-11-21T10:12:17;8.00;;;3.55;;
70444;SDS011;57902;49.638;11.070;2023-11-21T10:14:46;9.95;;;3.42;;
70444;SDS011;57902;49.638;11.070;2023-11-21T10:17:15;8.40;;;3.38;;
70444;SDS011;57902;49.638;11.070;2023-11-21T10:19:46;7.68;;;3.35;;
70444;SDS011;57902;49.638;11.070;2023-11-21T10:22:16;8.32;;;3.65;;
70444;SDS011;57902;49.638;11.070;2023-11-21T10:24:43;7.18;;;3.60;;
70444;SDS011;57902;49.638;11.070;2023-11-21T10:27:19;7.95;;;3.92;;
70444;SDS011;57902;49.638;11.070;2023-11-21T10:29:45;10.60;;;5.55;;
70444;SDS011;57902;49.638;11.070;2023-11-21T10:32:12;7.00;;;3.85;;
70444;SDS011;57902;49.638;11.070;2023-11-21T10:34:38;8.02;;;2.92;;
70444;SDS011;57902;49.638;11.070;2023-11-21T10:37:11;7.38;;;3.45;;
70444;SDS011;57902;49.638;11.070;2023-11-21T10:39:38;7.00;;;3.45;;
70444;SDS011;57902;49.638;11.070;2023-11-21T10:42:07;7.15;;;3.90;;
70444;SDS011;57902;49.638;11.070;2023-11-21T10:44:36;8.82;;;3.80;;
70444;SDS011;57902;49.638;11.070;2023-11-21T10:47:04;9.82;;;4.07;;
70444;SDS011;57902;49.638;11.070;2023-11-21T10:49:31;9.30;;;4.70;;
70444;SDS011;57902;49.638;11.070;2023-11-21T10:51:59;7.72;;;3.60;;
70444;SDS011;57902;49.638;11.070;2023-11-21T10:54:26;7.65;;;3.80;;
70444;SDS011;57902;49.638;11.070;2023-11-21T10:56:53;8.38;;;3.50;;
70444;SDS011;57902;49.638;11.070;2023-11-21T10:59:23;9.23;;;4.18;;
70444;SDS011;57902;49.638;11.070;2023-11-21T11:01:52;6.80;;;3.35;;
70444;SDS011;57902;49.638;11.070;2023-11-21T11:04:20;8.02;;;3.63;;
70444;SDS011;57902;49.638;11.070;2023-11-21T11:06:51;8.23;;;4.45;;
70444;SDS011;57902;49.638;11.070;2023-11-21T11:09:31;9.85;;;4.10;;
70444;SDS011;57902;49.638;11.070;2023-11-21T11:12:02;12.15;;;5.13;;
70444;SDS011;57902;49.638;11.070;2023-11-21T11:14:30;11.32;;;3.97;;
70444;SDS011;57902;49.638;11.070;2023-11-21T11:16:58;11.07;;;5.70;;
70444;SDS011;57902;49.638;11.070;2023-11-21T11:19:27;10.75;;;5.28;;
70444;SDS011;57902;49.638;11.070;2023-11-21T11:22:10;10.25;;;3.92;;
70444;SDS011;57902;49.638;11.070;2023-11-21T11:28:08;10.50;;;4.30;;
70444;SDS011;57902;49.638;11.070;2023-11-21T11:33:36;7.90;;;3.35;;
70444;SDS011;57902;49.638;11.070;2023-11-21T11:36:13;9.30;;;4.00;;
70444;SDS011;57902;49.638;11.070;2023-11-21T11:38:45;8.10;;;3.90;;
70444;SDS011;57902;49.638;11.070;2023-11-21T11:41:12;6.50;;;3.08;;
70444;SDS011;57902;49.638;11.070;2023-11-21T11:43:40;8.65;;;3.80;;
70444;SDS011;57902;49.638;11.070;2023-11-21T11:46:11;8.50;;;3.60;;
70444;SDS011;57902;49.638;11.070;2023-11-21T11:48:41;10.25;;;3.47;;
70444;SDS011;57902;49.638;11.070;2023-11-21T11:51:11;10.40;;;3.80;;
70444;SDS011;57902;49.638;11.070;2023-11-21T11:53:47;6.97;;;3.00;;
70444;SDS011;57902;49.638;11.070;2023-11-21T11:56:28;7.78;;;3.65;;
70444;SDS011;57902;49.638;11.070;2023-11-21T11:59:03;7.53;;;3.00;;
70444;SDS011;57902;49.638;11.070;2023-11-21T12:01:31;8.35;;;3.20;;
70444;SDS011;57902;49.638;11.070;2023-11-21T12:06:43;8.18;;;3.47;;
70444;SDS011;57902;49.638;11.070;2023-11-21T12:09:19;8.95;;;3.10;;
70444;SDS011;57902;49.638;11.070;2023-11-21T12:11:50;8.20;;;3.05;;
70444;SDS011;57902;49.638;11.070;2023-11-21T12:14:17;8.32;;;3.20;;
70444;SDS011;57902;49.638;11.070;2023-11-21T12:16:44;8.38;;;3.03;;
70444;SDS011;57902;49.638;11.070;2023-11-21T12:19:11;8.13;;;3.20;;
70444;SDS011;57902;49.638;11.070;2023-11-21T12:21:38;8.02;;;2.97;;
70444;SDS011;57902;49.638;11.070;2023-11-21T12:24:07;6.22;;;2.65;;
70444;SDS011;57902;49.638;11.070;2023-11-21T12:26:40;8.75;;;3.22;;
70444;SDS011;57902;49.638;11.070;2023-11-21T12:29:07;8.25;;;2.63;;
70444;SDS011;57902;49.638;11.070;2023-11-21T12:31:37;9.02;;;2.47;;
70444;SDS011;57902;49.638;11.070;2023-11-21T12:34:04;7.55;;;2.47;;
70444;SDS011;57902;49.638;11.070;2023-11-21T12:36:30;7.57;;;2.25;;
70444;SDS011;57902;49.638;11.070;2023-11-21T12:38:57;7.93;;;2.30;;
70444;SDS011;57902;49.638;11.070;2023-11-21T12:41:24;5.97;;;2.20;;
70444;SDS011;57902;49.638;11.070;2023-11-21T12:43:51;5.43;;;2.10;;
70444;SDS011;57902;49.638;11.070;2023-11-21T12:46:19;8.73;;;2.33;;
70444;SDS011;57902;49.638;11.070;2023-11-21T12:48:46;8.77;;;2.38;;
70444;SDS011;57902;49.638;11.070;2023-11-21T12:51:13;7.38;;;2.60;;
70444;SDS011;57902;49.638;11.070;2023-11-21T12:53:44;4.82;;;2.13;;
70444;SDS011;57902;49.638;11.070;2023-11-21T12:56:11;6.57;;;2.40;;
70444;SDS011;57902;49.638;11.070;2023-11-21T12:58:39;8.70;;;3.03;;
70444;SDS011;57902;49.638;11.070;2023-11-21T13:01:08;10.15;;;2.80;;
70444;SDS011;57902;49.638;11.070;2023-11-21T13:03:38;5.18;;;2.00;;
70444;SDS011;57902;49.638;11.070;2023-11-21T13:06:06;4.88;;;1.90;;
70444;SDS011;57902;49.638;11.070;2023-11-21T13:08:36;6.15;;;2.00;;
70444;SDS011;57902;49.638;11.070;2023-11-21T13:11:05;5.43;;;1.63;;
70444;SDS011;57902;49.638;11.070;2023-11-21T13:13:32;4.45;;;1.75;;
70444;SDS011;57902;49.638;11.070;2023-11-21T13:16:01;4.45;;;1.30;;
70444;SDS011;57902;49.638;11.070;2023-11-21T13:18:31;6.82;;;1.40;;
70444;SDS011;57902;49.638;11.070;2023-11-21T13:20:59;5.82;;;1.55;;
70444;SDS011;57902;49.638;11.070;2023-11-21T13:23:28;4.00;;;1.73;;
70444;SDS011;57902;49.638;11.070;2023-11-21T13:25:55;4.95;;;1.58;;
70444;SDS011;57902;49.638;11.070;2023-11-21T13:28:30;5.57;;;1.92;;
70444;SDS011;57902;49.638;11.070;2023-11-21T13:31:00;3.95;;;1.30;;
70444;SDS011;57902;49.638;11.070;2023-11-21T13:33:47;5.43;;;1.50;;
70444;SDS011;57902;49.638;11.070;2023-11-21T13:36:22;6.95;;;1.67;;
70444;SDS011;57902;49.638;11.070;2023-11-21T13:38:50;5.25;;;1.52;;
70444;SDS011;57902;49.638;11.070;2023-11-21T13:41:16;7.60;;;1.73;;
70444;SDS011;57902;49.638;11.070;2023-11-21T13:43:44;6.18;;;1.70;;
70444;SDS011;57902;49.638;11.070;2023-11-21T13:46:15;6.40;;;1.60;;
70444;SDS011;57902;49.638;11.070;2023-11-21T13:48:48;6.75;;;1.50;;
70444;SDS011;57902;49.638;11.070;2023-11-21T13:51:22;5.78;;;1.42;;
70444;SDS011;57902;49.638;11.070;2023-11-21T13:53:58;3.13;;;1.27;;
70444;SDS011;57902;49.638;11.070;2023-11-21T13:56:25;4.25;;;1.60;;
70444;SDS011;57902;49.638;11.070;2023-11-21T13:58:54;5.40;;;1.55;;
70444;SDS011;57902;49.638;11.070;2023-11-21T14:01:23;8.32;;;1.73;;
70444;SDS011;57902;49.638;11.070;2023-11-21T14:03:57;4.45;;;1.63;;
70444;SDS011;57902;49.638;11.070;2023-11-21T14:06:43;8.75;;;1.90;;
70444;SDS011;57902;49.638;11.070;2023-11-21T14:09:19;6.45;;;2.08;;
70444;SDS011;57902;49.638;11.070;2023-11-21T14:11:54;4.57;;;1.48;;
70444;SDS011;57902;49.638;11.070;2023-11-21T14:14:24;6.45;;;1.70;;
70444;SDS011;57902;49.638;11.070;2023-11-21T14:16:52;6.75;;;2.13;;
70444;SDS011;57902;49.638;11.070;2023-11-21T14:19:19;8.38;;;2.25;;
70444;SDS011;57902;49.638;11.070;2023-11-21T14:21:46;5.95;;;2.08;;
70444;SDS011;57902;49.638;11.070;2023-11-21T14:24:14;8.27;;;2.38;;
70444;SDS011;57902;49.638;11.070;2023-11-21T14:26:45;6.85;;;1.95;;
70444;SDS011;57902;49.638;11.070;2023-11-21T14:29:13;5.30;;;1.92;;
70444;SDS011;57902;49.638;11.070;2023-11-21T14:31:42;7.00;;;1.83;;
70444;SDS011;57902;49.638;11.070;2023-11-21T14:34:09;5.20;;;2.00;;
70444;SDS011;57902;49.638;11.070;2023-11-21T14:36:38;6.68;;;2.13;;
70444;SDS011;57902;49.638;11.070;2023-11-21T14:39:07;10.55;;;2.28;;
70444;SDS011;57902;49.638;11.070;2023-11-21T14:41:37;6.43;;;1.90;;
70444;SDS011;57902;49.638;11.070;2023-11-21T14:44:05;7.35;;;2.10;;
70444;SDS011;57902;49.638;11.070;2023-11-21T14:49:03;7.07;;;2.35;;
70444;SDS011;57902;49.638;11.070;2023-11-21T14:51:46;8.88;;;3.20;;
70444;SDS011;57902;49.638;11.070;2023-11-21T14:54:32;12.82;;;5.55;;
70444;SDS011;57902;49.638;11.070;2023-11-21T14:57:12;12.15;;;3.70;;
70444;SDS011;57902;49.638;11.070;2023-11-21T14:59:45;9.60;;;2.90;;
70444;SDS011;57902;49.638;11.070;2023-11-21T15:02:23;5.57;;;2.40;;